Time;durP1;ratioP1;P1;durP2;ratioP2;P2;SDS_P1;SDS_P2;PMS_P1;PMS_P2;Temp;Humidity;BMP_temperature;BMP_pressure;BME280_temperature;BME280_humidity;BME280_pressure;Samples;Min_cycle;Max_cycle;Signal;HPM_P1;HPM_P2
2022/02/05 00:00:53;;;;;;;4.10;2.30;;;6.70;99.90;;;;;;5033232;28;20192;-71
2022/02/05 00:03:36;;;;;;;4.20;1.60;;;6.80;99.90;;;;;;5031743;28;20931;-70
2022/02/05 00:06:05;;;;;;;3.83;1.90;;;6.90;99.90;;;;;;5033398;28;20183;-70
2022/02/05 00:43:04;;;;;;;4.40;2.07;;;6.20;99.90;;;;;;5035515;28;20446;-70
2022/02/05 00:45:34;;;;;;;3.33;1.80;;;6.20;99.90;;;;;;5038802;28;20434;-71
2022/02/05 00:48:01;;;;;;;5.80;2.03;;;6.00;99.90;;;;;;5036882;28;20342;-71
2022/02/05 00:50:29;;;;;;;5.80;2.20;;;6.00;99.90;;;;;;5039159;28;20442;-71
2022/02/05 00:53:02;;;;;;;3.03;1.90;;;6.00;99.90;;;;;;5032539;28;20431;-72
2022/02/05 00:55:32;;;;;;;3.40;2.00;;;5.90;99.90;;;;;;5033941;28;20435;-72
2022/02/05 00:58:02;;;;;;;3.43;1.80;;;6.00;99.90;;;;;;5031676;28;20438;-72
2022/02/05 01:00:30;;;;;;;2.50;1.70;;;5.80;99.90;;;;;;5030883;28;20435;-71
2022/02/05 01:02:56;;;;;;;6.10;2.20;;;5.90;99.90;;;;;;5033260;28;20952;-72
2022/02/05 01:05:22;;;;;;;7.50;2.37;;;5.90;99.90;;;;;;5034057;28;20431;-73
2022/02/05 01:07:48;;;;;;;3.50;1.90;;;5.80;99.90;;;;;;5037264;28;20479;-73
2022/02/05 01:10:14;;;;;;;4.37;2.20;;;5.80;99.90;;;;;;5037662;28;20180;-75
2022/02/05 01:12:45;;;;;;;4.10;2.03;;;5.80;99.90;;;;;;5033296;28;20216;-73
2022/02/05 01:15:12;;;;;;;2.10;1.90;;;5.80;99.90;;;;;;5039709;28;20426;-73
2022/02/05 01:17:44;;;;;;;2.97;2.27;;;5.80;99.90;;;;;;5039640;28;20988;-71
2022/02/05 01:20:37;;;;;;;4.07;2.23;;;5.70;99.90;;;;;;5037466;28;20541;-73
2022/02/05 01:23:00;;;;;;;3.40;1.80;;;5.60;99.90;;;;;;5037171;28;20441;-73
2022/02/05 01:25:31;;;;;;;3.20;2.20;;;5.60;99.90;;;;;;5035500;28;20439;-72
2022/02/05 01:28:04;;;;;;;3.03;2.10;;;5.60;99.90;;;;;;5041471;28;20468;-72
2022/02/05 01:30:36;;;;;;;4.90;2.57;;;5.50;99.90;;;;;;5025315;28;20465;-72
2022/02/05 01:35:57;;;;;;;3.43;2.43;;;5.50;99.90;;;;;;5044937;28;20462;-73
2022/02/05 01:55:05;;;;;;;4.97;2.30;;;5.30;99.90;;;;;;5037867;28;20848;-73
2022/02/05 01:57:53;;;;;;;3.07;1.90;;;5.30;99.90;;;;;;5037006;28;20453;-73
2022/02/05 02:05:56;;;;;;;4.50;2.80;;;5.10;99.90;;;;;;5039942;28;20479;-73
2022/02/05 02:16:33;;;;;;;5.30;2.60;;;5.00;99.90;;;;;;5036619;28;20184;-73
2022/02/05 02:24:18;;;;;;;3.30;3.00;;;5.00;99.90;;;;;;5038799;28;20442;-72
2022/02/05 02:29:22;;;;;;;7.20;2.73;;;5.00;99.90;;;;;;5037177;28;21728;-74
2022/02/05 02:31:50;;;;;;;9.00;3.30;;;4.90;99.90;;;;;;5037805;28;20445;-73
2022/02/05 02:34:21;;;;;;;4.60;2.93;;;5.00;99.90;;;;;;5037381;28;20469;-73
2022/02/05 02:36:55;;;;;;;5.27;3.03;;;5.00;99.90;;;;;;5037431;28;20941;-73
2022/02/05 02:39:27;;;;;;;3.43;2.90;;;5.00;99.90;;;;;;5035781;28;20861;-73
2022/02/05 02:42:01;;;;;;;5.40;3.10;;;5.10;99.90;;;;;;5038984;28;20451;-72
2022/02/05 02:44:27;;;;;;;5.83;2.57;;;5.00;99.90;;;;;;5036716;28;20430;-73
2022/02/05 02:46:53;;;;;;;8.40;2.90;;;5.10;99.90;;;;;;5020377;28;20500;-72
2022/02/05 02:49:35;;;;;;;7.40;2.93;;;4.80;99.90;;;;;;5036598;28;20223;-73
2022/02/05 02:57:34;;;;;;;4.53;3.23;;;4.80;99.90;;;;;;5007339;28;20565;-72
2022/02/05 03:00:03;;;;;;;4.10;2.80;;;4.90;99.90;;;;;;5036873;28;21146;-72
2022/02/05 03:02:29;;;;;;;6.60;2.77;;;4.80;99.90;;;;;;5021830;28;20439;-73
2022/02/05 03:04:55;;;;;;;5.20;2.93;;;4.80;99.90;;;;;;5038462;28;20439;-73
2022/02/05 03:07:23;;;;;;;6.40;3.30;;;4.90;99.90;;;;;;5005708;28;20315;-73
2022/02/05 03:09:53;;;;;;;3.53;2.30;;;4.80;99.90;;;;;;5044263;28;21046;-73
2022/02/05 03:12:19;;;;;;;4.93;2.83;;;4.80;99.90;;;;;;5036259;28;20959;-72
2022/02/05 03:14:46;;;;;;;3.97;2.53;;;4.70;99.90;;;;;;5038874;28;21039;-74
2022/02/05 03:17:20;;;;;;;3.10;2.60;;;4.70;99.90;;;;;;5038073;28;20534;-73
2022/02/05 03:19:50;;;;;;;4.90;2.90;;;4.70;99.90;;;;;;5033330;28;20435;-72
2022/02/05 03:22:17;;;;;;;13.13;3.50;;;4.70;99.90;;;;;;5036574;28;20438;-73
2022/02/05 03:24:44;;;;;;;6.03;3.07;;;4.60;99.90;;;;;;5039985;28;20440;-73
2022/02/05 03:27:30;;;;;;;10.33;2.90;;;4.60;99.90;;;;;;5038541;28;20466;-74
2022/02/05 03:29:56;;;;;;;3.37;2.53;;;4.60;99.90;;;;;;5039996;28;20424;-74
2022/02/05 03:32:23;;;;;;;4.67;3.03;;;4.60;99.90;;;;;;5037473;28;20444;-73
2022/02/05 03:34:49;;;;;;;4.70;2.77;;;4.50;99.90;;;;;;5037448;28;20210;-74
2022/02/05 03:37:15;;;;;;;7.10;3.20;;;4.50;99.90;;;;;;5037873;28;20940;-73
2022/02/05 03:39:41;;;;;;;2.80;2.40;;;4.40;99.90;;;;;;5039057;28;20441;-73
2022/02/05 03:42:07;;;;;;;5.20;2.73;;;4.40;99.90;;;;;;5038572;28;20435;-74
2022/02/05 03:44:33;;;;;;;9.30;2.97;;;4.40;99.90;;;;;;5038087;28;20195;-73
2022/02/05 03:46:58;;;;;;;4.13;2.43;;;4.40;99.90;;;;;;5038465;28;20450;-73
2022/02/05 03:49:24;;;;;;;8.83;2.90;;;4.50;99.90;;;;;;5037862;28;20782;-73
2022/02/05 03:51:51;;;;;;;5.40;2.80;;;4.50;99.90;;;;;;5036000;28;20955;-73
2022/02/05 03:54:20;;;;;;;4.53;2.60;;;4.50;99.90;;;;;;5019529;28;20430;-73
2022/02/05 03:56:48;;;;;;;3.23;2.73;;;4.50;99.90;;;;;;5036361;28;20461;-73
2022/02/05 03:59:15;;;;;;;9.00;2.70;;;4.50;99.90;;;;;;5038314;28;20487;-74
2022/02/05 04:01:41;;;;;;;4.87;2.50;;;4.60;99.90;;;;;;5035460;28;20463;-74
2022/02/05 04:04:06;;;;;;;7.03;2.67;;;4.50;99.90;;;;;;5035998;28;20612;-73
2022/02/05 04:06:32;;;;;;;6.27;2.43;;;4.60;99.90;;;;;;5035909;28;20454;-73
2022/02/05 04:09:02;;;;;;;5.40;2.57;;;4.60;99.90;;;;;;5036559;28;20227;-74
2022/02/05 04:11:49;;;;;;;5.07;2.67;;;4.60;99.90;;;;;;5038658;28;20184;-72
2022/02/05 04:16:59;;;;;;;5.63;2.50;;;4.50;99.90;;;;;;5037073;28;21002;-73
2022/02/05 04:19:24;;;;;;;7.10;2.80;;;4.50;99.90;;;;;;5034673;28;20435;-73
2022/02/05 04:21:51;;;;;;;4.40;2.77;;;4.40;99.90;;;;;;5035918;28;20188;-73
2022/02/05 04:24:17;;;;;;;2.80;2.20;;;4.50;99.90;;;;;;5033906;28;22505;-72
2022/02/05 04:26:42;;;;;;;3.87;3.53;;;4.50;99.90;;;;;;5035464;28;20463;-73
2022/02/05 04:29:09;;;;;;;4.20;2.50;;;4.50;99.90;;;;;;5035188;28;20199;-73
2022/02/05 04:31:36;;;;;;;4.40;2.60;;;4.50;99.90;;;;;;5035243;28;20556;-73
2022/02/05 04:34:03;;;;;;;6.90;2.60;;;4.50;99.90;;;;;;5034693;28;20804;-73
2022/02/05 04:36:29;;;;;;;3.20;2.20;;;4.40;99.90;;;;;;5035509;28;21346;-73
2022/02/05 04:38:59;;;;;;;9.63;2.60;;;4.60;99.90;;;;;;5040848;28;21092;-73
2022/02/05 04:41:33;;;;;;;6.13;3.17;;;4.50;99.90;;;;;;5037246;28;20510;-73
2022/02/05 04:44:22;;;;;;;3.93;2.47;;;4.60;99.90;;;;;;5035405;28;20982;-73
2022/02/05 04:50:01;;;;;;;3.93;2.00;;;4.60;99.90;;;;;;5033024;28;20527;-72
2022/02/05 04:55:06;;;;;;;6.90;2.97;;;4.60;99.90;;;;;;5035080;28;20508;-73
2022/02/05 05:21:12;;;;;;;15.13;2.80;;;4.70;99.90;;;;;;5011073;28;20507;-73
2022/02/05 05:23:38;;;;;;;4.93;2.57;;;4.70;99.90;;;;;;5035223;28;20464;-72
2022/02/05 05:26:04;;;;;;;3.83;1.80;;;4.60;99.90;;;;;;5037278;28;20450;-72
2022/02/05 05:28:30;;;;;;;5.30;2.20;;;4.60;99.90;;;;;;5037261;28;20457;-72
2022/02/05 05:30:55;;;;;;;4.83;2.47;;;4.60;99.90;;;;;;5033942;28;20435;-71
2022/02/05 05:33:21;;;;;;;4.47;2.00;;;4.60;99.90;;;;;;5035881;28;20184;-72
2022/02/05 05:35:47;;;;;;;15.77;2.90;;;4.60;99.90;;;;;;5037161;28;20698;-72
2022/02/05 05:38:12;;;;;;;9.53;2.60;;;4.70;99.90;;;;;;5036111;28;20200;-72
2022/02/05 05:40:41;;;;;;;4.30;2.13;;;4.70;99.90;;;;;;5035694;28;20598;-72
2022/02/05 05:43:17;;;;;;;2.83;1.90;;;4.80;99.90;;;;;;5034685;28;20267;-72
2022/02/05 05:48:45;;;;;;;4.00;2.07;;;4.80;99.90;;;;;;5030282;28;22772;-74
2022/02/05 05:51:10;;;;;;;6.90;2.10;;;4.60;99.90;;;;;;5032807;28;20454;-74
2022/02/05 05:53:36;;;;;;;4.73;2.43;;;4.70;99.90;;;;;;5031991;28;20496;-74
2022/02/05 05:56:03;;;;;;;5.17;2.63;;;4.60;99.90;;;;;;5029429;28;20191;-74
2022/02/05 05:58:29;;;;;;;5.43;2.40;;;4.60;99.90;;;;;;5030104;28;20205;-73
2022/02/05 06:00:55;;;;;;;5.33;2.63;;;4.50;99.90;;;;;;5031743;28;20438;-73
2022/02/05 06:03:21;;;;;;;6.53;2.90;;;4.60;99.90;;;;;;5036763;28;20447;-73
2022/02/05 06:05:47;;;;;;;2.73;2.07;;;4.50;99.90;;;;;;5036153;28;21090;-72
2022/02/05 06:08:15;;;;;;;5.13;2.50;;;4.50;99.90;;;;;;5033736;28;20472;-73
2022/02/05 06:10:40;;;;;;;3.97;2.57;;;4.50;99.90;;;;;;5025403;28;20186;-73
2022/02/05 06:13:06;;;;;;;3.10;2.40;;;4.50;99.90;;;;;;5037776;28;20431;-72
2022/02/05 06:15:32;;;;;;;4.50;2.37;;;4.60;99.90;;;;;;5036058;28;20184;-73
2022/02/05 06:17:57;;;;;;;3.00;2.50;;;4.60;99.90;;;;;;5036668;28;20278;-73
2022/02/05 06:20:23;;;;;;;4.80;2.63;;;4.60;99.90;;;;;;5040334;28;20843;-71
2022/02/05 06:22:49;;;;;;;7.33;2.27;;;4.50;99.90;;;;;;5031898;28;20188;-72
2022/02/05 06:25:15;;;;;;;3.30;2.30;;;4.40;99.90;;;;;;5036866;28;20271;-72
2022/02/05 06:27:40;;;;;;;4.97;2.70;;;4.50;99.90;;;;;;5038007;28;20208;-73
2022/02/05 06:30:06;;;;;;;4.33;2.37;;;4.50;99.90;;;;;;5037784;28;20441;-73
2022/02/05 06:32:32;;;;;;;6.10;2.87;;;4.40;99.90;;;;;;5037421;28;20893;-73
2022/02/05 06:34:58;;;;;;;4.70;2.40;;;4.40;99.90;;;;;;5037045;28;20434;-73
2022/02/05 06:37:23;;;;;;;6.43;2.60;;;4.50;99.90;;;;;;5030919;28;20764;-74
2022/02/05 06:39:49;;;;;;;13.93;2.63;;;4.50;99.90;;;;;;5036898;28;20282;-73
2022/02/05 06:42:15;;;;;;;3.03;2.33;;;4.40;99.90;;;;;;5037435;28;20200;-74
2022/02/05 06:44:40;;;;;;;6.20;2.50;;;4.40;99.90;;;;;;5038656;28;20184;-73
2022/02/05 06:47:06;;;;;;;3.63;2.40;;;4.40;99.90;;;;;;5037413;28;20694;-74
2022/02/05 06:49:34;;;;;;;2.93;2.10;;;4.40;99.90;;;;;;5034850;28;20203;-74
2022/02/05 06:52:00;;;;;;;5.27;2.47;;;4.40;99.90;;;;;;5024633;28;20883;-73
2022/02/05 06:54:25;;;;;;;2.83;2.53;;;4.40;99.90;;;;;;5035860;28;20510;-73
2022/02/05 06:56:51;;;;;;;5.37;2.13;;;4.50;99.90;;;;;;5026296;28;20675;-73
2022/02/05 06:59:17;;;;;;;6.33;2.57;;;4.40;99.90;;;;;;5038262;28;20664;-73
2022/02/05 07:01:43;;;;;;;4.67;2.97;;;4.40;99.90;;;;;;5037086;28;20199;-75
2022/02/05 07:04:08;;;;;;;4.10;2.63;;;4.50;99.90;;;;;;5041645;28;20439;-73
2022/02/05 07:06:34;;;;;;;9.57;4.40;;;4.30;99.90;;;;;;5038972;28;20730;-74
2022/02/05 07:09:04;;;;;;;6.23;3.47;;;4.30;99.90;;;;;;5034628;28;20241;-74
2022/02/05 07:11:30;;;;;;;7.47;2.97;;;4.40;99.90;;;;;;5033238;28;20185;-73
2022/02/05 07:13:57;;;;;;;4.80;2.97;;;4.40;99.90;;;;;;5037796;28;20419;-74
2022/02/05 07:16:34;;;;;;;4.30;2.70;;;4.40;99.90;;;;;;5036604;28;20431;-74
2022/02/05 07:19:19;;;;;;;3.30;2.03;;;4.40;99.90;;;;;;5025045;28;20444;-73
2022/02/05 07:21:50;;;;;;;7.00;3.10;;;4.40;99.90;;;;;;5037174;28;20443;-73
2022/02/05 07:29:28;;;;;;;5.27;2.20;;;4.50;99.90;;;;;;5038382;28;21209;-74
2022/02/05 07:31:56;;;;;;;6.23;2.40;;;4.40;99.90;;;;;;5040688;28;20426;-74
2022/02/05 07:34:30;;;;;;;3.97;2.43;;;4.50;99.90;;;;;;5039162;28;20238;-74
2022/02/05 07:37:02;;;;;;;2.60;2.20;;;4.50;99.90;;;;;;5042964;28;20462;-73
2022/02/05 07:39:29;;;;;;;6.70;2.90;;;4.50;99.90;;;;;;5036197;28;20430;-73
2022/02/05 07:41:55;;;;;;;7.00;2.43;;;4.50;99.90;;;;;;5038714;28;20497;-73
2022/02/05 07:44:21;;;;;;;4.60;1.90;;;4.50;99.90;;;;;;5036111;28;20441;-73
2022/02/05 07:46:50;;;;;;;5.50;2.50;;;4.60;99.90;;;;;;5040407;28;20461;-72
2022/02/05 07:49:18;;;;;;;4.63;2.33;;;4.60;99.90;;;;;;5038793;28;20488;-73
2022/02/05 07:51:45;;;;;;;6.90;2.60;;;4.70;99.90;;;;;;5036948;28;21107;-73
2022/02/05 07:54:11;;;;;;;4.73;2.40;;;4.70;99.90;;;;;;5035375;28;20458;-73
2022/02/05 07:56:49;;;;;;;4.00;2.37;;;4.70;99.90;;;;;;5034628;28;20482;-73
2022/02/05 07:59:16;;;;;;;5.50;2.80;;;4.70;99.90;;;;;;5034712;28;20513;-73
2022/02/05 08:01:42;;;;;;;5.93;2.80;;;4.60;99.90;;;;;;5037467;28;20447;-73
2022/02/05 08:04:08;;;;;;;2.77;2.17;;;4.70;99.90;;;;;;5035663;28;20931;-73
2022/02/05 08:06:35;;;;;;;10.80;2.37;;;4.80;99.90;;;;;;5036762;28;20450;-72
2022/02/05 08:09:13;;;;;;;6.87;3.47;;;4.80;99.90;;;;;;5037007;28;20474;-72
2022/02/05 08:11:48;;;;;;;2.57;2.20;;;4.80;99.90;;;;;;5021523;28;20443;-74
2022/02/05 08:14:14;;;;;;;5.50;1.97;;;4.80;99.90;;;;;;5035980;28;20556;-73
2022/02/05 08:19:06;;;;;;;4.60;2.80;;;4.80;99.90;;;;;;5039189;28;20191;-73
2022/02/05 08:21:31;;;;;;;6.40;2.57;;;4.80;99.90;;;;;;5039834;28;20780;-73
2022/02/05 08:23:57;;;;;;;10.30;3.53;;;4.80;99.90;;;;;;5038067;28;20542;-73
2022/02/05 08:26:28;;;;;;;6.10;2.60;;;4.90;99.90;;;;;;5037274;28;20302;-74
2022/02/05 08:28:54;;;;;;;6.43;2.63;;;4.80;99.90;;;;;;5037952;28;20710;-72
2022/02/05 08:31:21;;;;;;;6.00;2.50;;;4.90;99.90;;;;;;5036961;28;20441;-73
2022/02/05 08:33:46;;;;;;;5.83;2.67;;;4.90;99.90;;;;;;5035228;28;20437;-74
2022/02/05 08:36:12;;;;;;;5.90;2.63;;;5.00;99.90;;;;;;5038479;28;20430;-73
2022/02/05 08:38:38;;;;;;;7.70;2.90;;;4.90;99.90;;;;;;5037384;28;20199;-73
2022/02/05 08:41:04;;;;;;;5.50;2.90;;;4.90;99.90;;;;;;5038719;28;20438;-73
2022/02/05 08:43:30;;;;;;;5.80;2.63;;;4.80;99.90;;;;;;5034397;28;20537;-73
2022/02/05 08:45:57;;;;;;;3.23;2.70;;;4.90;99.90;;;;;;5023733;28;20192;-73
2022/02/05 08:48:23;;;;;;;3.30;2.50;;;5.00;99.90;;;;;;5033772;28;20489;-73
2022/02/05 08:50:49;;;;;;;7.20;3.00;;;5.00;99.90;;;;;;5038357;28;20545;-73
2022/02/05 08:53:19;;;;;;;3.90;2.73;;;5.00;99.90;;;;;;5033173;28;20697;-73
2022/02/05 08:55:45;;;;;;;3.50;3.20;;;5.00;99.90;;;;;;5034971;28;20187;-73
2022/02/05 08:58:11;;;;;;;7.33;2.90;;;5.00;99.90;;;;;;5033341;28;20897;-74
2022/02/05 09:00:46;;;;;;;4.23;2.90;;;5.00;99.90;;;;;;5034867;28;20447;-75
2022/02/05 09:03:24;;;;;;;13.30;4.97;;;5.10;99.90;;;;;;5033197;28;20968;-74
2022/02/05 09:05:51;;;;;;;6.70;2.77;;;5.10;99.90;;;;;;5038501;28;20437;-74
2022/02/05 09:08:54;;;;;;;6.53;3.13;;;5.20;99.90;;;;;;5017100;28;20477;-75
2022/02/05 09:11:35;;;;;;;4.40;2.67;;;5.20;99.90;;;;;;5019188;28;20948;-73
2022/02/05 09:14:46;;;;;;;4.10;2.57;;;5.20;99.90;;;;;;5030443;28;20509;-73
2022/02/05 09:16:46;;;;;;;6.17;3.63;;;5.30;99.90;;;;;;5018286;28;20971;-74
2022/02/05 09:19:12;;;;;;;6.23;3.50;;;5.40;99.90;;;;;;5034033;28;20454;-74
2022/02/05 09:21:38;;;;;;;6.33;3.13;;;5.40;99.90;;;;;;5037357;28;20434;-74
2022/02/05 09:24:06;;;;;;;6.57;2.53;;;5.40;99.90;;;;;;5037140;28;21550;-75
2022/02/05 09:26:39;;;;;;;5.27;2.90;;;5.40;99.90;;;;;;5035828;28;20462;-73
2022/02/05 09:29:13;;;;;;;6.93;3.10;;;5.50;99.90;;;;;;5033729;28;20561;-73
2022/02/05 09:31:39;;;;;;;5.30;2.70;;;5.40;99.90;;;;;;5036431;28;20509;-73
2022/02/05 09:34:05;;;;;;;5.70;3.23;;;5.50;99.90;;;;;;5036190;28;20529;-73
2022/02/05 09:36:31;;;;;;;7.73;2.87;;;5.50;99.90;;;;;;5039041;28;20212;-74
2022/02/05 09:38:57;;;;;;;8.23;2.83;;;5.50;99.90;;;;;;5042117;28;20446;-73
2022/02/05 09:41:24;;;;;;;7.97;3.43;;;5.60;99.90;;;;;;5040330;28;20450;-74
2022/02/05 09:43:51;;;;;;;5.20;2.70;;;5.60;99.90;;;;;;5041654;28;20671;-73
2022/02/05 09:46:18;;;;;;;4.43;2.33;;;5.70;99.90;;;;;;5038764;28;20442;-73
2022/02/05 09:48:46;;;;;;;9.43;2.93;;;5.80;99.90;;;;;;5042567;28;20515;-71
2022/02/05 09:51:21;;;;;;;8.97;3.07;;;5.90;99.90;;;;;;5039903;28;20448;-72
2022/02/05 09:53:52;;;;;;;4.03;2.47;;;5.90;99.90;;;;;;5041657;28;20437;-73
2022/02/05 09:56:19;;;;;;;4.37;2.50;;;6.00;99.90;;;;;;5012646;28;20469;-73
2022/02/05 09:58:45;;;;;;;4.00;2.60;;;6.00;99.90;;;;;;5040607;28;20472;-74
2022/02/05 10:01:22;;;;;;;6.63;2.63;;;6.10;99.90;;;;;;5039852;28;20858;-74
2022/02/05 10:03:49;;;;;;;3.30;2.30;;;6.20;99.90;;;;;;5040924;28;20526;-71
2022/02/05 10:06:26;;;;;;;5.60;2.40;;;6.20;99.90;;;;;;5038511;28;20435;-71
2022/02/05 10:09:07;;;;;;;4.63;2.37;;;6.10;99.90;;;;;;5039602;28;20477;-70
2022/02/05 10:11:48;;;;;;;6.70;2.23;;;6.20;99.90;;;;;;5039198;28;20519;-71
2022/02/05 10:14:21;;;;;;;5.40;2.73;;;6.30;99.90;;;;;;5039168;28;20810;-71
2022/02/05 10:16:55;;;;;;;5.60;2.50;;;6.30;99.90;;;;;;5037091;28;21041;-71
2022/02/05 10:19:23;;;;;;;3.70;2.70;;;6.40;99.90;;;;;;5040603;28;20473;-71
2022/02/05 10:22:04;;;;;;;5.37;2.57;;;6.50;99.90;;;;;;5033534;28;21008;-71
2022/02/05 10:24:30;;;;;;;8.43;3.40;;;6.60;99.90;;;;;;5037298;28;20469;-72
2022/02/05 10:26:56;;;;;;;3.30;3.00;;;6.80;99.90;;;;;;5038788;28;20469;-71
2022/02/05 10:29:22;;;;;;;8.50;2.63;;;6.80;99.90;;;;;;5040235;28;20216;-70
2022/02/05 10:32:13;;;;;;;5.63;3.67;;;6.70;99.90;;;;;;5032716;28;20453;-71
2022/02/05 10:37:28;;;;;;;3.47;2.70;;;6.80;99.90;;;;;;5033272;28;20902;-71
2022/02/05 10:45:15;;;;;;;7.30;4.20;;;6.80;99.90;;;;;;5036111;28;20452;-70
2022/02/05 10:47:56;;;;;;;7.67;4.43;;;6.70;99.90;;;;;;5029511;28;20450;-70
2022/02/05 10:50:35;;;;;;;8.97;3.30;;;6.70;99.90;;;;;;5034830;28;20460;-70
2022/02/05 10:53:16;;;;;;;6.87;3.10;;;6.60;99.90;;;;;;5036671;28;20432;-70
2022/02/05 11:07:14;;;;;;;4.20;2.80;;;6.80;99.90;;;;;;5035644;28;20484;-71
2022/02/05 11:09:48;;;;;;;6.63;2.97;;;6.80;99.90;;;;;;5030896;28;20494;-71
2022/02/05 11:15:01;;;;;;;3.70;2.40;;;6.90;99.90;;;;;;5034848;28;20438;-70
2022/02/05 11:20:06;;;;;;;3.63;3.30;;;6.90;99.90;;;;;;5036408;28;20439;-71
2022/02/05 11:22:36;;;;;;;7.13;4.50;;;6.90;99.90;;;;;;5035361;28;20436;-72
2022/02/05 11:25:05;;;;;;;8.30;4.33;;;6.90;99.90;;;;;;5033983;28;20470;-72
2022/02/05 11:27:31;;;;;;;9.27;3.73;;;6.90;99.90;;;;;;5037471;28;20503;-72
2022/02/05 11:30:17;;;;;;;4.83;3.37;;;7.00;99.90;;;;;;5038731;28;20438;-71
2022/02/05 11:32:50;;;;;;;5.63;2.53;;;7.10;99.90;;;;;;5034543;28;20434;-71
2022/02/05 11:35:29;;;;;;;7.50;3.53;;;7.10;99.90;;;;;;5035037;28;20852;-71
2022/02/05 11:37:55;;;;;;;5.83;3.60;;;7.20;99.90;;;;;;5034824;28;20465;-72
2022/02/05 11:40:43;;;;;;;6.83;3.07;;;7.20;99.90;;;;;;5018262;28;20446;-71
2022/02/05 11:43:24;;;;;;;8.97;3.80;;;7.20;99.90;;;;;;5032272;28;20658;-72
2022/02/05 11:46:05;;;;;;;11.33;3.50;;;7.20;99.90;;;;;;5033180;28;20437;-72
2022/02/05 11:48:43;;;;;;;8.37;3.17;;;7.40;99.90;;;;;;5034389;28;20461;-71
2022/02/05 11:51:13;;;;;;;3.30;2.93;;;7.40;99.90;;;;;;5037394;28;20470;-72
2022/02/05 11:54:00;;;;;;;7.83;2.83;;;7.50;99.90;;;;;;5033275;28;20474;-69
2022/02/05 11:56:56;;;;;;;5.53;2.87;;;7.60;99.90;;;;;;5032837;28;20769;-70
2022/02/05 11:59:24;;;;;;;7.13;3.00;;;7.70;99.90;;;;;;5032357;28;20454;-70
2022/02/05 12:02:08;;;;;;;5.50;2.80;;;7.80;99.90;;;;;;5030302;28;20438;-69
2022/02/05 12:04:33;;;;;;;4.40;3.10;;;7.90;99.90;;;;;;5024681;28;20449;-68
2022/02/05 12:07:06;;;;;;;6.70;2.57;;;8.00;99.90;;;;;;5037630;28;20462;-72
2022/02/05 12:09:46;;;;;;;11.23;3.37;;;8.00;99.90;;;;;;5036324;28;20234;-69
2022/02/05 12:12:36;;;;;;;5.80;3.17;;;8.30;99.90;;;;;;5033634;28;20455;-69
2022/02/05 12:15:16;;;;;;;7.43;3.03;;;8.30;99.90;;;;;;5036955;28;20834;-72
2022/02/05 12:26:20;;;;;;;5.57;3.60;;;8.90;99.90;;;;;;5036120;28;20818;-72
2022/02/05 12:28:50;;;;;;;6.37;3.07;;;9.10;99.90;;;;;;5035505;28;20471;-71
2022/02/05 12:31:21;;;;;;;6.03;3.00;;;9.70;99.90;;;;;;5034262;28;20422;-69
2022/02/05 12:33:46;;;;;;;9.70;3.00;;;10.80;99.90;;;;;;5041512;28;20526;-70
2022/02/05 12:36:26;;;;;;;5.53;3.60;;;12.00;99.90;;;;;;5037514;28;20531;-69
2022/02/05 12:39:14;;;;;;;5.10;2.30;;;13.30;99.90;;;;;;5035178;28;20735;-70
2022/02/05 12:42:00;;;;;;;10.50;2.77;;;13.60;99.90;;;;;;5036611;28;20442;-70
2022/02/05 12:44:29;;;;;;;3.87;2.93;;;14.00;99.90;;;;;;5034678;28;20459;-71
2022/02/05 12:47:04;;;;;;;9.70;3.00;;;14.80;99.90;;;;;;5034021;28;20458;-71
2022/02/05 12:52:01;;;;;;;6.03;2.23;;;14.90;99.90;;;;;;5038179;28;20434;-70
2022/02/05 12:54:29;;;;;;;7.20;2.60;;;14.80;99.30;;;;;;5034432;28;20871;-71
2022/02/05 12:56:57;;;;;;;8.13;2.73;;;14.00;99.40;;;;;;5037230;28;21023;-71
2022/02/05 12:59:32;;;;;;;8.73;3.07;;;14.30;99.40;;;;;;5031051;28;20431;-71
2022/02/05 13:02:06;;;;;;;5.90;3.20;;;14.50;99.00;;;;;;5036477;28;20456;-71
2022/02/05 13:04:40;;;;;;;4.80;2.20;;;14.90;98.00;;;;;;5034673;28;20505;-71
2022/02/05 13:07:12;;;;;;;6.67;2.77;;;14.60;96.50;;;;;;5035082;28;20865;-71
2022/02/05 13:09:51;;;;;;;5.43;2.47;;;15.40;96.80;;;;;;5032210;28;20560;-70
2022/02/05 13:12:21;;;;;;;7.73;2.87;;;15.60;93.90;;;;;;5040686;28;20430;-71
2022/02/05 13:14:54;;;;;;;9.77;2.80;;;15.10;93.80;;;;;;5037358;28;20496;-70
2022/02/05 13:26:12;;;;;;;4.67;2.30;;;14.70;93.50;;;;;;5038552;28;20892;-70
2022/02/05 13:34:09;;;;;;;6.77;2.90;;;11.60;97.70;;;;;;5043034;28;20512;-70
2022/02/05 13:36:46;;;;;;;3.20;2.50;;;10.80;99.90;;;;;;5041166;28;20462;-70
2022/02/05 13:39:56;;;;;;;5.87;2.83;;;10.40;99.90;;;;;;5041170;28;20530;-70
2022/02/05 13:42:26;;;;;;;9.63;2.90;;;10.00;99.90;;;;;;5014394;28;20576;-72
2022/02/05 13:45:10;;;;;;;3.70;2.67;;;9.80;99.90;;;;;;5041378;28;20501;-71
2022/02/05 13:47:49;;;;;;;6.60;2.43;;;9.50;99.90;;;;;;5040464;28;20458;-74
2022/02/05 13:50:29;;;;;;;4.77;2.60;;;9.40;99.90;;;;;;5039293;28;20442;-70
2022/02/05 13:53:03;;;;;;;3.90;2.40;;;9.10;99.90;;;;;;5039450;28;20446;-70
2022/02/05 13:55:37;;;;;;;6.93;2.80;;;9.00;99.90;;;;;;5042874;28;20983;-71
2022/02/05 13:58:05;;;;;;;5.87;2.23;;;9.00;99.90;;;;;;5037803;28;20468;-71
2022/02/05 14:00:37;;;;;;;3.37;2.50;;;8.90;99.90;;;;;;5040248;28;20441;-71
2022/02/05 14:03:05;;;;;;;9.30;3.20;;;8.90;99.90;;;;;;5040616;28;20438;-71
2022/02/05 14:05:31;;;;;;;7.40;2.90;;;8.90;99.90;;;;;;5037913;28;20440;-68
2022/02/05 14:07:56;;;;;;;5.00;2.70;;;8.90;99.90;;;;;;5042185;28;20938;-69
2022/02/05 14:10:23;;;;;;;8.83;3.90;;;9.00;99.90;;;;;;5039708;28;20266;-69
2022/02/05 14:12:55;;;;;;;9.33;4.60;;;8.90;99.90;;;;;;5037574;28;20185;-72
2022/02/05 14:15:23;;;;;;;10.97;6.10;;;8.90;99.90;;;;;;5039073;28;20433;-69
2022/02/05 14:18:13;;;;;;;10.03;3.70;;;8.90;99.90;;;;;;5040957;28;20455;-69
2022/02/05 14:20:48;;;;;;;15.10;5.30;;;8.90;99.90;;;;;;5041587;28;21022;-68
2022/02/05 14:23:16;;;;;;;8.70;3.40;;;8.90;99.90;;;;;;5036109;28;20429;-72
2022/02/05 14:26:11;;;;;;;11.53;2.53;;;8.90;99.90;;;;;;5021737;28;20434;-71
2022/02/05 14:28:44;;;;;;;3.40;2.63;;;8.90;99.90;;;;;;5035902;28;20493;-70
2022/02/05 14:31:44;;;;;;;5.13;2.50;;;8.90;99.90;;;;;;5039492;28;21163;-70
2022/02/05 14:34:21;;;;;;;12.60;2.97;;;8.80;99.90;;;;;;5037245;28;20431;-70
2022/02/05 14:42:12;;;;;;;8.30;2.50;;;8.70;99.90;;;;;;5038282;28;20448;-70
2022/02/05 14:44:38;;;;;;;5.53;2.20;;;8.70;99.90;;;;;;5034811;28;20917;-70
2022/02/05 14:47:06;;;;;;;4.27;2.53;;;8.70;99.90;;;;;;5021695;28;20462;-70
2022/02/05 14:49:32;;;;;;;2.77;2.10;;;8.70;99.90;;;;;;5019232;28;20511;-70
2022/02/05 14:52:01;;;;;;;7.30;2.70;;;8.70;99.90;;;;;;5037165;28;20876;-70
2022/02/05 14:54:28;;;;;;;3.33;2.53;;;8.70;99.90;;;;;;5019678;28;20172;-70
2022/02/05 14:56:53;;;;;;;4.93;2.60;;;8.70;99.90;;;;;;5034258;28;20463;-70
2022/02/05 14:59:19;;;;;;;5.33;2.57;;;8.70;99.90;;;;;;5039429;28;20504;-70
2022/02/05 15:01:45;;;;;;;7.67;3.30;;;8.70;99.90;;;;;;5037874;28;20207;-71
2022/02/05 15:04:10;;;;;;;7.67;2.50;;;8.60;99.90;;;;;;5035014;28;20191;-70
2022/02/05 15:06:36;;;;;;;7.70;3.20;;;8.60;99.90;;;;;;5039481;28;20223;-70
2022/02/05 15:09:06;;;;;;;5.17;2.90;;;8.50;99.90;;;;;;5038554;28;20568;-70
2022/02/05 15:11:33;;;;;;;3.63;2.83;;;8.60;99.90;;;;;;5038750;28;20948;-70
2022/02/05 15:14:01;;;;;;;7.30;2.10;;;8.70;99.90;;;;;;5038183;28;20461;-70
2022/02/05 15:16:31;;;;;;;3.13;2.20;;;8.70;99.90;;;;;;5036362;28;20936;-70
2022/02/05 15:18:58;;;;;;;6.90;3.20;;;8.80;99.90;;;;;;5038860;28;20883;-69
2022/02/05 15:21:28;;;;;;;5.33;2.50;;;9.00;99.90;;;;;;5020886;28;20913;-69
2022/02/05 15:23:56;;;;;;;8.97;3.10;;;9.10;99.90;;;;;;5041288;28;20461;-68
2022/02/05 15:26:26;;;;;;;7.33;2.40;;;9.10;99.90;;;;;;5037974;28;20441;-71
2022/02/05 15:28:52;;;;;;;8.40;3.37;;;9.10;99.90;;;;;;5038217;28;20815;-69
2022/02/05 15:31:18;;;;;;;9.23;2.90;;;9.10;99.90;;;;;;5038366;28;20438;-71
2022/02/05 15:33:47;;;;;;;5.80;3.60;;;9.10;99.90;;;;;;5036531;28;20581;-68
2022/02/05 15:36:18;;;;;;;4.43;2.80;;;9.20;99.90;;;;;;5037907;28;20422;-69
2022/02/05 15:38:52;;;;;;;6.90;2.50;;;9.20;99.90;;;;;;5036112;28;20532;-68
2022/02/05 15:44:01;;;;;;;3.07;2.20;;;9.00;99.90;;;;;;5036709;28;20446;-69
2022/02/05 15:46:27;;;;;;;6.60;3.07;;;9.10;99.90;;;;;;5036031;28;20434;-69
2022/02/05 15:48:53;;;;;;;7.80;2.47;;;9.10;99.90;;;;;;5036496;28;20295;-69
2022/02/05 15:51:20;;;;;;;5.73;2.83;;;9.00;99.90;;;;;;5035215;28;20593;-68
2022/02/05 15:53:51;;;;;;;4.20;2.47;;;8.90;99.90;;;;;;5037731;28;20580;-69
2022/02/05 15:58:56;;;;;;;5.13;2.40;;;8.80;99.90;;;;;;5038873;28;20474;-69
2022/02/05 16:01:22;;;;;;;8.40;2.50;;;8.80;99.90;;;;;;5040143;28;20893;-69
2022/02/05 16:03:47;;;;;;;5.70;2.30;;;8.80;99.90;;;;;;5041327;28;20474;-69
2022/02/05 16:06:13;;;;;;;7.50;3.40;;;8.70;99.90;;;;;;5034333;28;20192;-69
2022/02/05 16:08:39;;;;;;;5.53;2.50;;;8.60;99.90;;;;;;5037216;28;20220;-68
2022/02/05 16:11:04;;;;;;;10.97;2.17;;;8.50;99.90;;;;;;5037506;28;20496;-71
2022/02/05 16:13:30;;;;;;;6.60;2.50;;;8.40;99.90;;;;;;5039001;28;20203;-69
2022/02/05 16:15:56;;;;;;;2.00;1.80;;;8.40;99.90;;;;;;5034054;28;20176;-70